Time;durP1;ratioP1;P1;durP2;ratioP2;P2;SDS_P1;SDS_P2;PMS_P1;PMS_P2;Temp;Humidity;BMP_temperature;BMP_pressure;BME280_temperature;BME280_humidity;BME280_pressure;Samples;Min_cycle;Max_cycle;Signal;HPM_P1;HPM_P2
2021/03/19 00:02:11;;;;;;;1.67;0.60;;;2.50;69.50;;;;;;5080847;28;20043;-71
2021/03/19 00:04:36;;;;;;;0.68;0.50;;;2.50;69.50;;;;;;5103131;28;20091;-71
2021/03/19 00:07:02;;;;;;;1.42;0.73;;;2.50;69.60;;;;;;5084829;28;20055;-71
2021/03/19 00:09:27;;;;;;;0.80;0.47;;;2.50;69.60;;;;;;5102887;28;20081;-71
2021/03/19 00:11:53;;;;;;;1.38;0.50;;;2.50;69.50;;;;;;5101631;28;20069;-71
2021/03/19 00:14:19;;;;;;;1.40;0.50;;;2.50;69.80;;;;;;5101753;28;20107;-71
2021/03/19 00:16:44;;;;;;;1.80;0.40;;;2.50;69.70;;;;;;5118712;28;20035;-71
2021/03/19 00:19:10;;;;;;;0.50;0.30;;;2.40;70.00;;;;;;5101864;28;20073;-71
2021/03/19 00:21:36;;;;;;;1.27;0.45;;;2.40;70.00;;;;;;5102170;28;20012;-71
2021/03/19 00:24:02;;;;;;;0.90;0.52;;;2.50;70.20;;;;;;5085159;28;20024;-70
2021/03/19 00:26:27;;;;;;;1.67;0.80;;;2.60;69.70;;;;;;5102967;28;20016;-70
2021/03/19 00:28:53;;;;;;;1.67;0.43;;;2.60;69.50;;;;;;5085176;28;20036;-71
2021/03/19 00:31:19;;;;;;;1.08;0.50;;;2.50;69.70;;;;;;5067915;28;20016;-70
2021/03/19 00:33:45;;;;;;;3.22;0.50;;;2.60;69.90;;;;;;5101317;28;20329;-71
2021/03/19 00:36:10;;;;;;;1.23;0.43;;;2.50;69.50;;;;;;5084363;28;20034;-70
2021/03/19 00:38:36;;;;;;;1.50;0.40;;;2.50;69.80;;;;;;5086917;28;20079;-70
2021/03/19 00:41:01;;;;;;;0.63;0.40;;;2.50;69.80;;;;;;5105437;28;20012;-71
2021/03/19 00:43:27;;;;;;;1.23;0.70;;;2.40;70.00;;;;;;5106518;28;20189;-71
2021/03/19 00:45:53;;;;;;;1.00;0.57;;;2.40;70.20;;;;;;5105719;28;20015;-70
2021/03/19 00:48:18;;;;;;;0.70;0.50;;;2.40;70.60;;;;;;5105441;28;20372;-70
2021/03/19 00:50:44;;;;;;;1.33;0.70;;;2.40;70.70;;;;;;5106362;28;20019;-72
2021/03/19 00:53:10;;;;;;;0.90;0.40;;;2.40;70.60;;;;;;5105127;28;20221;-70
2021/03/19 00:55:35;;;;;;;2.78;0.73;;;2.40;71.10;;;;;;5106509;28;20240;-70
2021/03/19 00:58:01;;;;;;;1.60;0.52;;;2.40;71.40;;;;;;5105138;28;20264;-70
2021/03/19 01:00:29;;;;;;;5.18;0.70;;;2.30;71.70;;;;;;5104564;28;20144;-72
2021/03/19 01:02:54;;;;;;;0.68;0.50;;;2.40;72.00;;;;;;5105165;28;20004;-72
2021/03/19 01:05:25;;;;;;;0.82;0.60;;;2.40;71.70;;;;;;5088155;28;20024;-72
2021/03/19 01:07:51;;;;;;;1.58;0.60;;;2.30;72.30;;;;;;5071315;28;20047;-70
2021/03/19 01:10:26;;;;;;;1.20;0.55;;;2.30;72.50;;;;;;5088214;28;20014;-72
2021/03/19 01:12:51;;;;;;;0.80;0.40;;;2.30;72.60;;;;;;5105156;28;20031;-70
2021/03/19 01:15:17;;;;;;;0.57;0.50;;;2.30;72.90;;;;;;5088189;28;20008;-70
2021/03/19 01:17:43;;;;;;;1.63;0.65;;;2.30;73.00;;;;;;5106600;28;20036;-70
2021/03/19 01:20:10;;;;;;;3.03;0.77;;;2.20;73.30;;;;;;5069264;28;20015;-71
2021/03/19 01:22:36;;;;;;;0.90;0.50;;;2.30;73.40;;;;;;5100656;28;20053;-71
2021/03/19 01:25:04;;;;;;;3.60;1.30;;;2.30;73.60;;;;;;5090771;28;20013;-70
2021/03/19 01:27:29;;;;;;;3.63;1.25;;;2.30;73.90;;;;;;5087927;28;20015;-70
2021/03/19 01:29:55;;;;;;;2.95;1.20;;;2.30;74.20;;;;;;5104084;28;20082;-70
2021/03/19 01:32:20;;;;;;;1.30;0.80;;;2.30;73.90;;;;;;5104192;28;20008;-70
2021/03/19 01:34:46;;;;;;;0.80;0.60;;;2.30;73.80;;;;;;5070861;28;20008;-70
2021/03/19 01:37:12;;;;;;;0.73;0.50;;;2.30;74.20;;;;;;5070667;28;20043;-70
2021/03/19 01:39:37;;;;;;;1.58;0.47;;;2.20;74.40;;;;;;5104246;28;20009;-70
2021/03/19 01:42:03;;;;;;;0.93;0.52;;;2.30;74.60;;;;;;5103399;28;20047;-70
2021/03/19 01:44:52;;;;;;;0.80;0.40;;;2.30;75.20;;;;;;5098062;28;20091;-70
2021/03/19 01:47:55;;;;;;;1.15;0.40;;;2.30;75.60;;;;;;5065457;28;20021;-70
2021/03/19 01:50:59;;;;;;;0.85;0.43;;;2.40;75.50;;;;;;5089462;28;20324;-71
2021/03/19 01:54:02;;;;;;;0.80;0.30;;;2.40;75.60;;;;;;5104090;28;20040;-70
2021/03/19 01:57:05;;;;;;;0.30;0.30;;;2.40;75.50;;;;;;5104943;28;20013;-71
2021/03/19 02:00:08;;;;;;;0.63;0.40;;;2.40;75.30;;;;;;5105250;28;20018;-70
2021/03/19 02:03:11;;;;;;;0.98;0.45;;;2.30;76.30;;;;;;5104478;28;20012;-70
2021/03/19 02:06:14;;;;;;;0.98;0.40;;;2.30;75.80;;;;;;5105353;28;20021;-70
2021/03/19 02:09:17;;;;;;;0.60;0.40;;;2.40;75.80;;;;;;5064553;28;20039;-72
2021/03/19 02:12:20;;;;;;;0.82;0.50;;;2.30;75.80;;;;;;5059743;28;20029;-72
2021/03/19 02:15:23;;;;;;;0.93;0.40;;;2.30;75.90;;;;;;5045016;28;20059;-71
2021/03/19 02:18:26;;;;;;;0.85;0.40;;;2.30;76.10;;;;;;5043410;28;20017;-70
2021/03/19 02:21:29;;;;;;;1.17;0.52;;;2.20;76.50;;;;;;5054849;28;20009;-71
2021/03/19 02:24:32;;;;;;;0.47;0.30;;;2.20;76.70;;;;;;5064539;28;20068;-71
2021/03/19 02:27:35;;;;;;;1.02;0.30;;;2.30;76.80;;;;;;5064496;28;20241;-71
2021/03/19 02:30:38;;;;;;;0.85;0.40;;;2.20;77.10;;;;;;5064375;28;20040;-71
2021/03/19 02:33:03;;;;;;;0.20;0.20;;;2.20;77.30;;;;;;5076865;28;20033;-71
2021/03/19 02:35:29;;;;;;;0.20;0.20;;;2.20;77.50;;;;;;5061008;28;20033;-72
2021/03/19 02:37:55;;;;;;;1.40;0.50;;;2.20;77.30;;;;;;5077749;28;20017;-71
2021/03/19 02:40:22;;;;;;;0.35;0.30;;;2.20;77.40;;;;;;5078656;28;20184;-71
2021/03/19 02:42:48;;;;;;;3.00;0.20;;;2.10;77.80;;;;;;5077429;28;20052;-71
2021/03/19 02:45:16;;;;;;;1.00;0.40;;;2.10;78.10;;;;;;5055405;28;20029;-71
2021/03/19 02:47:41;;;;;;;0.30;0.30;;;2.10;78.10;;;;;;5046847;28;20206;-72
2021/03/19 02:50:08;;;;;;;0.68;0.30;;;2.10;78.10;;;;;;5062840;28;20001;-71
2021/03/19 02:52:35;;;;;;;0.45;0.32;;;2.10;78.10;;;;;;5063030;28;20058;-71
2021/03/19 02:55:01;;;;;;;1.20;0.50;;;2.10;78.10;;;;;;5063609;28;20009;-71
2021/03/19 02:57:26;;;;;;;1.13;0.40;;;2.10;78.10;;;;;;5062629;28;20306;-71
2021/03/19 02:59:52;;;;;;;0.80;0.40;;;2.00;78.00;;;;;;5062270;28;20025;-71
2021/03/19 03:02:18;;;;;;;0.60;0.40;;;2.00;78.30;;;;;;5062409;28;20008;-70
2021/03/19 03:04:43;;;;;;;0.40;0.30;;;2.10;78.10;;;;;;5045979;28;20036;-72
2021/03/19 03:07:25;;;;;;;1.23;0.35;;;2.10;78.20;;;;;;5084214;28;20044;-70
2021/03/19 03:09:51;;;;;;;0.55;0.35;;;2.00;78.30;;;;;;5086414;28;20012;-71
2021/03/19 03:12:17;;;;;;;0.65;0.30;;;2.00;78.50;;;;;;5102147;28;20015;-71
2021/03/19 03:14:42;;;;;;;0.20;0.20;;;2.00;78.60;;;;;;5102724;28;20057;-70
2021/03/19 03:17:09;;;;;;;0.52;0.20;;;2.00;78.60;;;;;;5085603;28;20019;-70
2021/03/19 03:19:34;;;;;;;0.93;0.45;;;2.00;78.50;;;;;;5102135;28;20004;-70
2021/03/19 03:22:00;;;;;;;0.57;0.25;;;2.00;79.00;;;;;;5085502;28;20023;-70
2021/03/19 03:24:26;;;;;;;0.38;0.35;;;2.00;79.00;;;;;;5101964;28;20027;-70
2021/03/19 03:26:52;;;;;;;1.23;0.50;;;2.00;79.10;;;;;;5102456;28;20012;-70
2021/03/19 03:29:20;;;;;;;0.30;0.30;;;2.00;78.90;;;;;;5103818;28;20038;-71
2021/03/19 03:31:45;;;;;;;0.50;0.32;;;2.00;79.10;;;;;;5105706;28;20023;-71
2021/03/19 03:34:11;;;;;;;0.40;0.30;;;2.00;79.40;;;;;;5105338;28;20020;-71
2021/03/19 03:36:38;;;;;;;0.25;0.25;;;2.00;79.50;;;;;;5086256;28;20320;-70
2021/03/19 03:39:05;;;;;;;1.73;0.60;;;2.00;79.50;;;;;;5102361;28;20012;-70
2021/03/19 03:41:31;;;;;;;0.80;0.40;;;2.00;79.80;;;;;;5085390;28;20031;-70
2021/03/19 03:43:56;;;;;;;0.45;0.30;;;2.10;79.70;;;;;;5085425;28;20053;-70
2021/03/19 03:46:24;;;;;;;0.40;0.30;;;2.10;79.80;;;;;;5102329;28;20061;-70
2021/03/19 03:48:50;;;;;;;0.90;0.40;;;2.00;79.80;;;;;;5101639;28;20079;-70
2021/03/19 03:51:16;;;;;;;0.43;0.35;;;2.00;79.90;;;;;;5085014;28;20012;-70
2021/03/19 03:53:41;;;;;;;0.28;0.28;;;2.00;80.00;;;;;;5084787;28;20028;-72
2021/03/19 03:56:09;;;;;;;0.65;0.35;;;2.10;79.90;;;;;;5085015;28;20035;-71
2021/03/19 03:58:34;;;;;;;0.65;0.30;;;2.10;79.90;;;;;;5101943;28;20011;-71
2021/03/19 04:01:00;;;;;;;0.45;0.30;;;2.10;79.90;;;;;;5085218;28;20318;-71
2021/03/19 04:03:26;;;;;;;0.43;0.30;;;2.00;80.20;;;;;;5101538;28;20020;-71
2021/03/19 04:05:51;;;;;;;0.50;0.30;;;1.90;80.50;;;;;;5084924;28;20020;-71
2021/03/19 04:08:20;;;;;;;0.55;0.40;;;1.90;80.70;;;;;;5085219;28;20016;-71
2021/03/19 04:10:45;;;;;;;1.45;0.40;;;1.80;81.20;;;;;;5081897;28;20005;-71
2021/03/19 04:13:11;;;;;;;1.23;0.25;;;1.80;81.20;;;;;;5088059;28;20020;-71
2021/03/19 04:15:37;;;;;;;0.47;0.30;;;1.80;81.30;;;;;;5095970;28;20016;-71
2021/03/19 04:18:05;;;;;;;0.20;0.20;;;1.70;81.50;;;;;;5106320;28;20075;-71
2021/03/19 04:20:31;;;;;;;0.88;0.43;;;1.70;81.70;;;;;;5105696;28;20019;-71
2021/03/19 04:22:57;;;;;;;0.40;0.40;;;1.60;82.10;;;;;;5105975;28;20031;-71
2021/03/19 04:25:23;;;;;;;0.52;0.35;;;1.50;82.40;;;;;;5088937;28;20016;-71
2021/03/19 04:28:00;;;;;;;0.52;0.30;;;1.50;82.60;;;;;;5106070;28;20004;-71
2021/03/19 04:30:31;;;;;;;0.30;0.25;;;1.50;82.80;;;;;;5105992;28;20011;-71
2021/03/19 04:32:57;;;;;;;0.57;0.40;;;1.60;82.40;;;;;;5085925;28;20024;-71
2021/03/19 04:35:23;;;;;;;0.73;0.40;;;1.60;82.40;;;;;;5068472;28;20016;-71
2021/03/19 04:37:49;;;;;;;0.73;0.30;;;1.50;82.50;;;;;;5068317;28;20008;-71
2021/03/19 04:40:15;;;;;;;0.93;0.32;;;1.50;82.60;;;;;;5102782;28;20010;-71
2021/03/19 04:42:41;;;;;;;1.73;0.30;;;1.50;82.80;;;;;;5105436;28;20185;-71
2021/03/19 04:45:07;;;;;;;1.38;0.40;;;1.50;83.10;;;;;;5105297;28;20015;-71
2021/03/19 04:47:33;;;;;;;0.70;0.38;;;1.40;83.30;;;;;;5105496;28;20008;-71
2021/03/19 04:49:58;;;;;;;0.90;0.50;;;1.40;83.50;;;;;;5106524;28;20087;-71
2021/03/19 04:52:24;;;;;;;0.80;0.50;;;1.30;83.40;;;;;;5088700;28;20098;-71
2021/03/19 04:54:49;;;;;;;0.30;0.30;;;1.30;83.70;;;;;;5105250;28;20008;-71
2021/03/19 04:57:15;;;;;;;0.88;0.40;;;1.30;83.60;;;;;;5104786;28;20084;-71
2021/03/19 04:59:41;;;;;;;2.03;0.60;;;1.30;83.70;;;;;;5104832;28;20328;-71
2021/03/19 05:02:06;;;;;;;1.42;0.40;;;1.20;83.90;;;;;;5087886;28;20018;-71
2021/03/19 05:04:32;;;;;;;0.38;0.38;;;1.20;84.00;;;;;;5105130;28;20016;-71
2021/03/19 05:07:01;;;;;;;0.70;0.40;;;1.20;84.10;;;;;;5104084;28;20044;-70
2021/03/19 05:09:28;;;;;;;0.55;0.30;;;1.30;84.00;;;;;;5102914;28;20039;-70
2021/03/19 05:11:54;;;;;;;0.70;0.40;;;1.30;83.80;;;;;;5104922;28;20019;-70
2021/03/19 05:14:20;;;;;;;1.27;0.50;;;1.30;83.90;;;;;;5103770;28;20024;-70
2021/03/19 05:16:45;;;;;;;1.40;0.40;;;1.20;83.90;;;;;;5103923;28;20049;-72
2021/03/19 05:19:11;;;;;;;1.42;0.50;;;1.10;84.10;;;;;;5076454;28;20016;-70
2021/03/19 05:21:37;;;;;;;1.17;0.40;;;1.10;84.10;;;;;;5083530;28;20013;-70
2021/03/19 05:24:03;;;;;;;0.80;0.57;;;1.10;84.30;;;;;;5084140;28;20322;-70
2021/03/19 05:26:28;;;;;;;0.90;0.47;;;1.10;84.30;;;;;;5083665;28;20013;-70
2021/03/19 05:28:54;;;;;;;1.73;0.50;;;1.10;84.20;;;;;;5091381;28;20023;-71
2021/03/19 05:31:20;;;;;;;0.50;0.47;;;1.20;84.00;;;;;;5086287;28;20065;-71
2021/03/19 05:33:50;;;;;;;1.73;0.50;;;1.10;84.10;;;;;;5083332;28;20027;-71
2021/03/19 05:36:18;;;;;;;0.73;0.40;;;1.20;83.90;;;;;;5070337;28;20075;-71
2021/03/19 05:38:44;;;;;;;5.28;0.60;;;1.20;83.80;;;;;;5082425;28;20076;-71
2021/03/19 05:41:10;;;;;;;1.50;0.65;;;1.20;83.70;;;;;;5097807;28;20016;-73
2021/03/19 05:44:08;;;;;;;1.70;0.65;;;1.10;83.80;;;;;;5118007;28;20024;-73
2021/03/19 05:46:46;;;;;;;0.85;0.63;;;1.20;84.30;;;;;;5119590;28;20024;-72
2021/03/19 05:49:18;;;;;;;0.80;0.57;;;1.10;84.50;;;;;;5102121;28;20051;-72
2021/03/19 05:51:51;;;;;;;1.08;0.52;;;1.10;84.80;;;;;;5115649;28;20004;-72
2021/03/19 05:54:24;;;;;;;2.53;0.80;;;1.10;85.00;;;;;;5116349;28;20107;-72
2021/03/19 05:56:52;;;;;;;;;;;1.10;85.00;;;;;;5098029;28;20019;-72
2021/03/19 05:59:19;;;;;;;1.48;0.40;;;1.20;85.30;;;;;;5113017;28;19904;-72
2021/03/19 06:01:45;;;;;;;0.85;0.63;;;1.20;85.20;;;;;;5115630;28;20103;-72
2021/03/19 06:04:21;;;;;;;2.17;0.70;;;1.20;84.90;;;;;;5112478;28;20012;-72
2021/03/19 06:08:35;;;;;;;1.25;0.70;;;1.20;84.80;;;;;;5100716;27;20347;-76
2021/03/19 06:11:25;;;;;;;1.40;0.60;;;1.30;84.10;;;;;;5099856;28;20199;-76
2021/03/19 06:14:02;;;;;;;1.48;0.80;;;1.30;84.20;;;;;;5099508;28;20023;-77
2021/03/19 06:16:47;;;;;;;2.22;0.90;;;1.30;82.90;;;;;;5082585;28;20014;-77
2021/03/19 06:19:30;;;;;;;2.20;0.93;;;1.30;82.10;;;;;;5087689;28;20076;-76
2021/03/19 06:22:15;;;;;;;2.72;0.90;;;1.30;81.40;;;;;;5072360;28;20024;-76
2021/03/19 06:24:41;;;;;;;2.88;0.90;;;1.30;80.20;;;;;;5063838;28;20019;-77
2021/03/19 06:27:11;;;;;;;1.42;0.90;;;1.30;78.30;;;;;;5080330;28;20017;-77
2021/03/19 06:30:07;;;;;;;2.30;1.05;;;1.30;76.20;;;;;;5075831;28;20016;-77
2021/03/19 06:32:33;;;;;;;1.90;1.00;;;1.30;75.00;;;;;;5078992;28;20306;-76
2021/03/19 06:35:00;;;;;;;2.20;0.98;;;1.20;72.60;;;;;;5077865;28;20044;-76
2021/03/19 06:37:40;;;;;;;1.65;1.10;;;1.30;73.00;;;;;;5069695;28;20155;-77
2021/03/19 06:40:24;;;;;;;1.58;1.00;;;1.40;70.00;;;;;;5097846;28;20012;-76
2021/03/19 06:42:49;;;;;;;3.05;1.30;;;1.30;68.70;;;;;;5066029;28;20301;-75
2021/03/19 06:45:15;;;;;;;1.95;0.70;;;1.30;67.80;;;;;;5062757;28;20020;-78
2021/03/19 06:47:56;;;;;;;1.48;0.98;;;1.20;67.50;;;;;;5082946;28;20032;-76
2021/03/19 06:50:22;;;;;;;2.35;1.13;;;1.20;66.70;;;;;;5081047;28;20012;-76
2021/03/19 06:52:47;;;;;;;4.32;1.30;;;1.10;66.10;;;;;;5080220;28;20039;-77
2021/03/19 06:55:35;;;;;;;3.10;1.08;;;1.10;65.10;;;;;;5092273;28;20064;-76
2021/03/19 06:58:00;;;;;;;2.67;0.90;;;1.00;65.30;;;;;;5089449;28;20021;-76
2021/03/19 07:00:46;;;;;;;4.55;1.30;;;0.90;65.10;;;;;;5070925;28;20054;-76
2021/03/19 07:03:21;;;;;;;2.47;1.13;;;1.00;65.60;;;;;;5098366;28;24261;-77
2021/03/19 07:06:08;;;;;;;1.75;1.00;;;1.00;65.10;;;;;;5055088;28;20024;-76
2021/03/19 07:08:39;;;;;;;5.65;1.27;;;1.10;64.80;;;;;;5052741;28;20040;-77
2021/03/19 07:11:38;;;;;;;2.50;0.90;;;1.00;64.20;;;;;;5040755;28;20019;-77
2021/03/19 07:14:41;;;;;;;5.47;1.75;;;1.10;64.00;;;;;;5058764;28;20639;-77
2021/03/19 07:17:44;;;;;;;2.60;0.90;;;1.10;63.00;;;;;;5064043;28;20000;-80
2021/03/19 07:20:37;;;;;;;2.08;0.80;;;1.20;62.90;;;;;;5040603;28;20858;-76
2021/03/19 07:23:26;;;;;;;2.90;1.10;;;1.20;62.70;;;;;;5040849;28;20017;-76
2021/03/19 07:26:30;;;;;;;2.38;1.00;;;1.50;62.80;;;;;;5045139;28;20738;-78
2021/03/19 07:29:16;;;;;;;4.07;1.15;;;1.40;61.40;;;;;;5016144;28;20029;-78
2021/03/19 07:32:03;;;;;;;3.70;1.00;;;1.40;60.50;;;;;;5018815;28;20067;-79
2021/03/19 07:34:47;;;;;;;2.05;0.80;;;1.60;60.10;;;;;;5042051;28;20069;-80
2021/03/19 07:37:20;;;;;;;4.05;0.90;;;1.60;59.40;;;;;;5009392;28;20448;-77
2021/03/19 07:40:01;;;;;;;2.88;0.82;;;1.60;58.10;;;;;;4994883;28;20098;-80
2021/03/19 07:42:47;;;;;;;5.18;1.05;;;1.70;58.40;;;;;;5013174;28;20070;-79
2021/03/19 07:45:47;;;;;;;2.60;1.13;;;1.80;58.00;;;;;;4993592;28;20041;-74
2021/03/19 07:48:24;;;;;;;2.30;0.80;;;1.80;57.20;;;;;;4985726;28;21136;-77
2021/03/19 07:51:04;;;;;;;2.50;0.80;;;3.60;55.00;;;;;;4993869;28;20326;-77
2021/03/19 07:53:53;;;;;;;3.28;0.93;;;4.50;52.00;;;;;;5012365;28;23258;-75
2021/03/19 07:56:47;;;;;;;1.30;0.80;;;4.20;50.50;;;;;;5008035;28;20063;-75
2021/03/19 07:59:17;;;;;;;3.65;1.00;;;4.50;49.70;;;;;;4997953;28;20116;-73
2021/03/19 08:01:58;;;;;;;2.10;0.80;;;5.00;49.60;;;;;;5004214;28;20036;-74
2021/03/19 08:04:26;;;;;;;5.07;0.90;;;4.80;48.00;;;;;;5034322;28;20021;-75
2021/03/19 08:06:54;;;;;;;2.63;1.10;;;4.70;48.60;;;;;;5051835;28;20124;-74
2021/03/19 08:09:29;;;;;;;3.08;1.05;;;5.40;48.40;;;;;;5059699;28;20025;-74
2021/03/19 08:11:57;;;;;;;4.20;1.25;;;5.20;46.40;;;;;;5058749;28;20024;-79
2021/03/19 08:14:41;;;;;;;2.97;1.02;;;4.40;47.90;;;;;;5051751;28;20017;-76
2021/03/19 08:17:24;;;;;;;2.63;1.00;;;5.50;48.00;;;;;;5058169;28;20055;-74
2021/03/19 08:20:00;;;;;;;2.38;1.00;;;5.10;46.30;;;;;;5038898;28;20045;-74
2021/03/19 08:22:35;;;;;;;2.72;1.05;;;4.90;44.80;;;;;;5019944;28;21210;-75
2021/03/19 08:25:06;;;;;;;2.67;0.70;;;4.60;46.00;;;;;;5038692;28;20095;-75
2021/03/19 08:27:52;;;;;;;2.67;1.13;;;5.70;45.70;;;;;;5021033;28;20344;-75
2021/03/19 08:30:56;;;;;;;2.40;0.80;;;6.10;42.60;;;;;;5039247;28;20036;-75
2021/03/19 08:33:45;;;;;;;8.27;1.60;;;6.00;43.50;;;;;;5036475;28;20017;-76
2021/03/19 08:36:36;;;;;;;2.63;0.80;;;6.00;43.00;;;;;;5024629;28;20013;-77
2021/03/19 08:39:16;;;;;;;2.60;0.90;;;5.60;43.70;;;;;;5036387;28;20013;-78
2021/03/19 08:41:48;;;;;;;1.50;0.80;;;5.60;44.00;;;;;;5027206;28;20396;-77
2021/03/19 08:44:16;;;;;;;3.08;1.00;;;6.10;41.10;;;;;;5036060;28;20085;-77
2021/03/19 08:46:41;;;;;;;2.05;0.90;;;5.90;39.40;;;;;;5016865;28;20056;-75
2021/03/19 08:49:25;;;;;;;5.85;0.90;;;5.60;39.50;;;;;;5036373;28;21013;-78
2021/03/19 08:51:54;;;;;;;2.03;0.80;;;6.00;38.20;;;;;;5035946;28;20025;-76
2021/03/19 08:54:21;;;;;;;1.25;0.47;;;6.00;37.90;;;;;;5018990;28;20515;-77
2021/03/19 08:56:49;;;;;;;2.13;0.63;;;5.90;37.10;;;;;;5034446;28;20353;-77
2021/03/19 08:59:33;;;;;;;0.60;0.45;;;6.50;37.00;;;;;;5014729;28;20071;-74
2021/03/19 09:02:00;;;;;;;1.67;0.65;;;7.20;35.90;;;;;;5016266;28;20044;-77
2021/03/19 09:04:56;;;;;;;1.05;0.57;;;6.90;34.40;;;;;;5011890;28;20238;-76
2021/03/19 09:07:32;;;;;;;1.45;0.63;;;7.20;34.70;;;;;;5030707;28;20053;-80
2021/03/19 09:10:25;;;;;;;2.33;0.88;;;6.40;34.50;;;;;;5019841;28;20314;-75
2021/03/19 09:12:57;;;;;;;1.13;0.50;;;6.10;33.90;;;;;;4992749;28;22540;-76
2021/03/19 09:15:23;;;;;;;2.78;1.02;;;7.50;33.10;;;;;;5010605;28;20241;-74
2021/03/19 09:17:50;;;;;;;1.00;0.55;;;7.20;29.90;;;;;;5008571;28;20275;-76
2021/03/19 09:20:31;;;;;;;3.20;0.70;;;6.90;30.50;;;;;;4991980;28;20425;-77
2021/03/19 09:23:12;;;;;;;1.80;0.70;;;6.60;31.10;;;;;;5017280;28;20032;-78
2021/03/19 09:25:51;;;;;;;1.23;0.60;;;7.00;32.70;;;;;;5029241;28;20098;-77
2021/03/19 09:28:23;;;;;;;1.45;0.70;;;7.90;30.50;;;;;;5017454;28;20032;-74
2021/03/19 09:30:50;;;;;;;;;;;7.70;30.00;;;;;;5021779;28;20402;-76
2021/03/19 09:33:45;;;;;;;2.47;0.60;;;7.50;30.00;;;;;;5018732;28;19952;-79
2021/03/19 09:36:48;;;;;;;4.03;0.70;;;7.50;30.50;;;;;;5016356;28;20033;-76
2021/03/19 09:39:48;;;;;;;2.05;0.50;;;7.40;31.30;;;;;;5023305;28;21244;-75
2021/03/19 09:42:20;;;;;;;1.45;0.63;;;7.20;32.20;;;;;;5021397;28;20048;-76
2021/03/19 09:44:49;;;;;;;1.88;0.50;;;7.60;33.30;;;;;;5021580;28;20013;-76
2021/03/19 09:47:16;;;;;;;1.80;0.60;;;7.80;32.30;;;;;;5009879;28;20311;-76
2021/03/19 09:49:41;;;;;;;2.38;0.70;;;8.50;31.00;;;;;;4984946;28;20040;-78
2021/03/19 09:52:29;;;;;;;0.90;0.50;;;8.90;30.20;;;;;;4976213;28;20852;-75
2021/03/19 09:54:55;;;;;;;3.17;0.90;;;9.10;30.80;;;;;;4984914;28;20020;-75
2021/03/19 09:57:20;;;;;;;1.27;0.50;;;8.20;30.20;;;;;;4989545;28;20254;-78
2021/03/19 09:59:46;;;;;;;1.33;0.60;;;7.70;31.30;;;;;;5004435;28;20463;-77
2021/03/19 10:02:35;;;;;;;1.15;0.52;;;7.20;31.00;;;;;;4993287;28;20530;-75
2021/03/19 10:05:21;;;;;;;1.73;0.80;;;7.70;30.60;;;;;;4991602;28;20610;-75
2021/03/19 10:07:55;;;;;;;0.70;0.50;;;7.80;30.70;;;;;;5015983;28;20056;-76
2021/03/19 10:10:25;;;;;;;6.43;0.95;;;7.50;30.00;;;;;;5002934;28;20268;-75
2021/03/19 10:12:51;;;;;;;1.48;0.88;;;7.50;29.90;;;;;;5007416;28;20017;-75
2021/03/19 10:15:27;;;;;;;1.40;0.65;;;6.80;30.20;;;;;;4996999;28;20021;-74
2021/03/19 10:17:54;;;;;;;1.80;0.68;;;6.50;31.40;;;;;;4999072;28;20016;-74
2021/03/19 10:20:35;;;;;;;1.55;0.73;;;6.50;30.30;;;;;;5016147;28;20013;-74
2021/03/19 10:23:22;;;;;;;3.72;0.70;;;7.10;29.90;;;;;;5018755;28;20017;-74
2021/03/19 10:25:49;;;;;;;0.93;0.50;;;7.30;29.70;;;;;;5032389;28;20025;-74
2021/03/19 10:28:17;;;;;;;1.55;0.70;;;7.70;28.10;;;;;;5016084;28;20037;-75
2021/03/19 10:30:53;;;;;;;3.05;0.90;;;6.80;28.00;;;;;;5036415;28;20005;-75
2021/03/19 10:33:59;;;;;;;1.48;0.70;;;7.70;28.50;;;;;;5056166;28;20013;-76
2021/03/19 10:37:00;;;;;;;1.27;0.60;;;7.70;27.60;;;;;;5022994;28;20016;-76
2021/03/19 10:39:37;;;;;;;1.92;0.65;;;8.00;27.90;;;;;;5034149;28;20377;-76
2021/03/19 10:42:34;;;;;;;0.40;0.40;;;6.90;27.20;;;;;;5029138;28;20286;-75
2021/03/19 10:45:13;;;;;;;1.25;0.55;;;7.40;27.50;;;;;;5039579;28;20017;-74
2021/03/19 10:47:52;;;;;;;2.45;0.60;;;7.80;28.20;;;;;;5030182;28;21527;-75
2021/03/19 10:50:22;;;;;;;1.27;0.57;;;8.00;28.00;;;;;;5039514;28;20021;-78
2021/03/19 10:53:04;;;;;;;1.77;0.65;;;8.40;26.00;;;;;;5042894;28;20039;-73
2021/03/19 10:55:33;;;;;;;;;;;7.30;25.50;;;;;;5020890;28;20012;-73
2021/03/19 10:58:36;;;;;;;1.20;0.70;;;7.50;25.70;;;;;;5013687;28;19944;-76
2021/03/19 11:01:10;;;;;;;1.00;0.40;;;7.00;25.50;;;;;;5041621;28;20753;-73
2021/03/19 11:03:43;;;;;;;1.33;0.50;;;7.80;26.10;;;;;;5004397;28;20025;-74
2021/03/19 11:06:09;;;;;;;1.60;0.43;;;6.90;24.20;;;;;;5013350;28;20028;-75
2021/03/19 11:08:38;;;;;;;0.63;0.47;;;7.40;25.60;;;;;;5025211;28;20314;-74
2021/03/19 11:11:04;;;;;;;1.60;0.60;;;7.00;24.60;;;;;;5025653;28;20238;-74
2021/03/19 11:13:37;;;;;;;0.82;0.50;;;5.30;25.40;;;;;;5027277;28;20017;-73
2021/03/19 11:16:05;;;;;;;1.63;0.52;;;5.00;26.90;;;;;;5027766;28;20017;-74
2021/03/19 11:18:39;;;;;;;0.82;0.47;;;4.90;27.10;;;;;;5004995;28;20020;-74
2021/03/19 11:21:08;;;;;;;3.13;0.60;;;4.30;27.30;;;;;;5000921;28;20288;-74
2021/03/19 11:23:36;;;;;;;1.05;0.38;;;4.20;27.90;;;;;;5024627;28;20097;-74
2021/03/19 11:26:15;;;;;;;2.92;0.40;;;4.30;28.30;;;;;;5018973;28;20024;-74
2021/03/19 11:28:42;;;;;;;1.10;0.40;;;4.10;27.80;;;;;;4996349;28;20060;-73
2021/03/19 11:31:27;;;;;;;1.95;0.40;;;4.10;26.90;;;;;;5015441;28;20901;-74
2021/03/19 11:34:02;;;;;;;6.18;1.05;;;3.90;25.90;;;;;;5019886;28;20821;-74
2021/03/19 11:36:30;;;;;;;1.23;0.47;;;3.70;26.90;;;;;;5030807;28;20025;-75
2021/03/19 11:39:10;;;;;;;1.92;0.50;;;4.10;27.50;;;;;;5014029;28;20016;-74
2021/03/19 11:41:40;;;;;;;2.83;0.55;;;4.30;27.30;;;;;;5031403;28;20024;-74
2021/03/19 11:44:06;;;;;;;0.88;0.38;;;4.50;27.10;;;;;;5015849;28;20295;-74
2021/03/19 11:46:31;;;;;;;1.92;0.50;;;4.50;27.30;;;;;;5008809;28;20039;-74
2021/03/19 11:48:57;;;;;;;1.38;0.47;;;4.60;27.60;;;;;;5039733;28;20721;-74
2021/03/19 11:51:31;;;;;;;1.00;0.40;;;4.40;27.00;;;;;;5011039;28;20013;-74
2021/03/19 11:53:58;;;;;;;1.55;0.50;;;4.30;27.40;;;;;;5035083;28;20017;-75
2021/03/19 11:56:23;;;;;;;2.70;0.85;;;4.00;27.50;;;;;;5018342;28;20032;-74
2021/03/19 11:58:49;;;;;;;0.70;0.30;;;4.20;27.90;;;;;;5016493;28;20036;-74
2021/03/19 12:01:15;;;;;;;0.80;0.40;;;4.20;27.10;;;;;;5011215;28;20012;-74
2021/03/19 12:03:43;;;;;;;1.80;0.60;;;3.90;27.30;;;;;;5001894;28;20024;-75
2021/03/19 12:06:09;;;;;;;2.13;0.60;;;4.00;27.00;;;;;;5020937;28;20077;-75
2021/03/19 12:08:36;;;;;;;1.40;0.57;;;3.80;26.80;;;;;;5023089;28;20059;-74
2021/03/19 12:11:02;;;;;;;0.93;0.43;;;3.80;27.50;;;;;;5016614;28;20040;-74
2021/03/19 12:13:28;;;;;;;2.67;0.80;;;4.30;28.20;;;;;;5027583;28;20018;-74
2021/03/19 12:15:53;;;;;;;2.30;0.88;;;4.60;27.40;;;;;;5037649;28;20321;-74
2021/03/19 12:18:20;;;;;;;1.90;0.77;;;4.60;27.10;;;;;;5043631;28;20018;-74
2021/03/19 12:20:46;;;;;;;1.80;0.50;;;4.20;26.20;;;;;;5019545;28;20020;-74
2021/03/19 12:23:12;;;;;;;1.35;0.50;;;4.10;27.10;;;;;;5012637;28;20012;-75
2021/03/19 12:25:38;;;;;;;0.90;0.40;;;4.10;27.00;;;;;;5010160;28;20106;-74
2021/03/19 12:28:07;;;;;;;1.00;0.30;;;4.10;26.90;;;;;;5014577;28;20073;-74
2021/03/19 12:30:33;;;;;;;2.42;0.95;;;4.30;27.60;;;;;;5018984;28;20311;-74
2021/03/19 12:32:59;;;;;;;3.00;0.50;;;4.40;27.90;;;;;;5034652;28;20013;-74
2021/03/19 12:35:26;;;;;;;2.25;0.50;;;4.60;27.90;;;;;;5030806;28;20013;-74
2021/03/19 12:37:52;;;;;;;1.65;0.50;;;4.50;27.60;;;;;;5031932;28;20028;-74
2021/03/19 12:40:19;;;;;;;1.40;0.52;;;4.60;27.80;;;;;;5021103;28;20033;-73
2021/03/19 12:42:45;;;;;;;0.47;0.35;;;4.60;27.80;;;;;;5028912;28;20080;-73
2021/03/19 12:45:11;;;;;;;1.70;0.50;;;4.60;27.60;;;;;;5016650;28;20036;-74
2021/03/19 12:47:37;;;;;;;2.28;0.73;;;4.50;27.30;;;;;;5043788;28;20087;-73
2021/03/19 12:50:04;;;;;;;0.95;0.50;;;4.70;27.80;;;;;;5033412;28;20337;-74
2021/03/19 12:52:29;;;;;;;1.08;0.55;;;4.70;26.30;;;;;;5041155;28;20021;-73
2021/03/19 12:54:55;;;;;;;1.77;0.70;;;4.50;27.00;;;;;;5031133;28;20071;-73
2021/03/19 12:57:21;;;;;;;2.00;0.50;;;4.70;27.00;;;;;;5038932;28;20092;-73
2021/03/19 12:59:46;;;;;;;0.77;0.40;;;4.70;27.10;;;;;;5048342;28;20037;-74
2021/03/19 13:02:12;;;;;;;0.85;0.40;;;4.90;27.20;;;;;;5038894;28;20250;-74
2021/03/19 13:04:38;;;;;;;1.52;0.47;;;4.70;27.40;;;;;;5034781;28;20013;-73
2021/03/19 13:07:07;;;;;;;0.63;0.40;;;4.90;27.20;;;;;;5012153;28;20045;-74
2021/03/19 13:09:33;;;;;;;1.55;0.50;;;5.20;27.80;;;;;;5014768;28;20021;-73
2021/03/19 13:11:59;;;;;;;2.22;0.80;;;5.10;26.90;;;;;;5035650;28;20016;-73
2021/03/19 13:14:25;;;;;;;2.95;0.60;;;4.90;26.90;;;;;;5023016;28;20013;-73
2021/03/19 13:16:51;;;;;;;0.77;0.45;;;4.80;27.50;;;;;;5035708;28;20021;-73
2021/03/19 13:19:17;;;;;;;3.22;0.57;;;4.90;27.60;;;;;;5010799;28;20016;-73
2021/03/19 13:21:42;;;;;;;1.50;0.40;;;4.80;27.80;;;;;;5031261;28;20031;-73
2021/03/19 13:24:08;;;;;;;3.13;0.68;;;4.80;28.60;;;;;;5016746;28;20107;-73
2021/03/19 13:26:34;;;;;;;1.27;0.50;;;5.00;28.80;;;;;;5034152;28;20040;-73
2021/03/19 13:29:00;;;;;;;1.85;0.40;;;4.90;28.70;;;;;;5017347;28;20390;-73
2021/03/19 13:31:25;;;;;;;1.48;0.52;;;5.00;28.60;;;;;;5008525;28;20013;-73